Terminal Aerodrome Forecast
Issued by NWS Duluth, MN

Home | Current Version | Previous Version | Text Only | Print | Product List | Glossary On
Versions: 1 2 3 4 5 6 7 8 9 10 11 12 13 14 15 16 17 18 19 20 21 22 23 24 25 26 27 28
000
FTUS43 KDLH 202221 AAA
TAFINL
TAF AMD
KINL 202221Z 2022/2118 12006KT 4SM -RA BR OVC012
      TEMPO 2022/2101 P6SM -RA
     FM210100 12005KT 1 1/2SM -SNRA BR OVC003=

USA.gov is the U.S. government's official web portal to all federal, state and local government web resources and services.